createdAt,value
2023-06-16T00:00:48.485Z,112.31
2023-06-16T00:01:48.586Z,109.17
2023-06-16T00:02:48.629Z,111.59
2023-06-16T00:03:47.633Z,111.09
2023-06-16T00:04:48.637Z,110.72
2023-06-16T00:05:48.679Z,111.46
2023-06-16T00:06:48.724Z,110.36
2023-06-16T00:07:48.764Z,113.13
2023-06-16T00:08:48.825Z,109.91
2023-06-16T00:09:48.889Z,108.33
2023-06-16T00:10:48.890Z,113.23
2023-06-16T00:11:48.924Z,110.74
2023-06-16T00:12:48.000Z,112.37
2023-06-16T00:13:49.031Z,109.36
2023-06-16T00:14:49.054Z,110.81
2023-06-16T00:15:49.094Z,111.00
2023-06-16T00:16:49.127Z,110.67
2023-06-16T00:17:49.306Z,110.15
2023-06-16T00:18:48.216Z,113.20
2023-06-16T00:19:49.248Z,108.17
2023-06-16T00:20:49.276Z,111.76
2023-06-16T00:21:49.330Z,109.14
2023-06-16T00:22:49.720Z,110.31
2023-06-16T00:23:48.425Z,108.92
2023-06-16T00:24:49.463Z,108.33
2023-06-16T00:25:49.516Z,111.82
2023-06-16T00:26:49.555Z,111.86
2023-06-16T00:27:49.615Z,111.04
2023-06-16T00:28:48.734Z,110.78
2023-06-16T00:29:48.685Z,110.57
2023-06-16T00:30:49.786Z,108.10
2023-06-16T00:31:49.818Z,110.58
2023-06-16T00:32:49.867Z,111.03
2023-06-16T00:33:48.900Z,113.44
2023-06-16T00:34:49.952Z,106.83
2023-06-16T00:35:49.979Z,111.97
2023-06-16T00:36:50.012Z,111.01
2023-06-16T00:37:50.070Z,110.23
2023-06-16T00:38:50.090Z,111.17
2023-06-16T00:39:50.139Z,112.60
2023-06-16T00:40:50.184Z,108.82
2023-06-16T00:41:50.220Z,112.25
2023-06-16T00:42:50.307Z,109.61
2023-06-16T00:43:49.317Z,109.26
2023-06-16T00:44:50.385Z,110.44
2023-06-16T00:45:50.414Z,106.85
2023-06-16T00:46:50.494Z,111.18
2023-06-16T00:47:50.543Z,107.69
2023-06-16T00:48:50.546Z,110.26
2023-06-16T00:49:49.609Z,111.29
2023-06-16T00:50:49.658Z,110.08
2023-06-16T00:51:50.706Z,110.26
2023-06-16T00:52:50.784Z,110.08
2023-06-16T00:53:49.835Z,110.24
2023-06-16T00:54:50.889Z,107.07
2023-06-16T00:55:50.915Z,110.54
2023-06-16T00:56:50.989Z,111.35
2023-06-16T00:57:51.038Z,108.54
2023-06-16T00:58:51.089Z,107.83
2023-06-16T00:59:50.157Z,112.42
2023-06-16T01:00:50.195Z,111.35
2023-06-16T01:01:51.275Z,111.14
2023-06-16T01:02:51.417Z,108.86
2023-06-16T01:03:51.364Z,107.07
2023-06-16T01:04:51.399Z,110.13
2023-06-16T01:05:51.465Z,109.46
2023-06-16T01:06:50.490Z,111.27
2023-06-16T01:07:51.588Z,111.74
2023-06-16T01:08:51.657Z,110.21
2023-06-16T01:09:51.676Z,111.28
2023-06-16T01:10:51.723Z,110.19
2023-06-16T01:11:51.800Z,110.09
2023-06-16T01:12:51.840Z,110.49
2023-06-16T01:13:51.910Z,109.69
2023-06-16T01:14:50.943Z,109.93
2023-06-16T01:15:52.029Z,113.22
2023-06-16T01:16:52.085Z,109.35
2023-06-16T01:17:52.105Z,107.79
2023-06-16T01:18:52.169Z,110.78
2023-06-16T01:19:52.213Z,109.40
2023-06-16T01:20:52.327Z,109.74
2023-06-16T01:21:52.311Z,111.24
2023-06-16T01:22:51.405Z,109.49
2023-06-16T01:23:51.491Z,112.49
2023-06-16T01:24:52.481Z,107.40
2023-06-16T01:25:52.556Z,111.51
2023-06-16T01:26:52.560Z,108.95
2023-06-16T01:27:52.639Z,110.05
2023-06-16T01:28:52.688Z,109.77
2023-06-16T01:29:52.796Z,109.73
2023-06-16T01:30:52.772Z,109.29
2023-06-16T01:31:52.840Z,107.85
2023-06-16T01:32:52.886Z,108.20
2023-06-16T01:33:52.970Z,110.26
2023-06-16T01:34:53.015Z,109.39
2023-06-16T01:35:52.053Z,110.04
2023-06-16T01:36:53.105Z,108.20
2023-06-16T01:37:53.158Z,110.32
2023-06-16T01:38:53.235Z,109.53
2023-06-16T01:39:53.263Z,108.45
2023-06-16T01:40:52.333Z,105.95
2023-06-16T01:41:53.368Z,108.53
2023-06-16T01:42:53.459Z,109.92
2023-06-16T01:43:53.470Z,107.77
2023-06-16T01:44:53.535Z,108.16
2023-06-16T01:45:53.662Z,106.83
2023-06-16T01:46:53.736Z,105.60
2023-06-16T01:47:52.750Z,109.51
2023-06-16T01:48:52.780Z,108.25
2023-06-16T01:49:53.824Z,108.12
2023-06-16T01:50:52.879Z,107.22
2023-06-16T01:51:53.931Z,109.63
2023-06-16T01:52:54.006Z,107.14
2023-06-16T01:53:54.061Z,108.54
2023-06-16T01:54:54.141Z,110.83
2023-06-16T01:55:54.163Z,109.01
2023-06-16T01:56:54.227Z,106.89
2023-06-16T01:57:54.367Z,104.91
2023-06-16T01:58:54.327Z,107.78
2023-06-16T01:59:54.400Z,108.84
2023-06-16T02:00:54.455Z,105.46
2023-06-16T02:01:54.520Z,107.10
2023-06-16T02:02:54.702Z,106.92
2023-06-16T02:03:54.797Z,108.16
2023-06-16T02:04:53.669Z,109.45
2023-06-16T02:05:53.722Z,109.43
2023-06-16T02:06:54.784Z,104.97
2023-06-16T02:07:54.985Z,108.25
2023-06-16T02:08:55.007Z,104.73
2023-06-16T02:09:53.943Z,106.78
2023-06-16T02:10:55.029Z,107.48
2023-06-16T02:11:55.062Z,107.81
2023-06-16T02:12:55.124Z,107.83
2023-06-16T02:13:54.190Z,107.72
2023-06-16T02:14:55.255Z,107.25
2023-06-16T02:15:54.372Z,104.11
2023-06-16T02:16:54.368Z,107.13
2023-06-16T02:17:55.431Z,107.52
2023-06-16T02:18:55.546Z,107.31
2023-06-16T02:19:54.523Z,106.95
2023-06-16T02:20:55.592Z,102.66
2023-06-16T02:21:55.673Z,107.07
2023-06-16T02:22:54.720Z,108.89
2023-06-16T02:23:55.822Z,104.49
2023-06-16T02:24:55.836Z,104.36
2023-06-16T02:25:55.914Z,107.77
2023-06-16T02:26:54.975Z,103.36
2023-06-16T02:27:55.063Z,104.21
2023-06-16T02:28:56.079Z,107.43
2023-06-16T02:29:56.154Z,106.75
2023-06-16T02:30:56.234Z,107.51
2023-06-16T02:31:56.278Z,106.72
2023-06-16T02:33:02.521Z,103.56
2023-06-16T02:33:56.286Z,103.82
2023-06-16T02:34:56.322Z,104.21
2023-06-16T02:35:56.285Z,104.40
2023-06-16T02:36:55.261Z,103.80
2023-06-16T02:37:56.339Z,105.81
2023-06-16T02:38:56.262Z,103.64
2023-06-16T02:39:56.271Z,105.40
2023-06-16T02:40:55.265Z,106.49
2023-06-16T02:41:56.300Z,107.16
2023-06-16T02:42:56.364Z,102.46
2023-06-16T02:43:55.407Z,104.04
2023-06-16T02:44:55.448Z,104.85
2023-06-16T02:45:55.533Z,104.23
2023-06-16T02:46:56.625Z,102.61
2023-06-16T02:47:56.721Z,102.53
2023-06-16T02:48:56.699Z,103.55
2023-06-16T02:49:55.838Z,103.57
2023-06-16T02:50:56.842Z,104.98
2023-06-16T02:51:56.916Z,102.94
2023-06-16T02:52:56.955Z,106.01
2023-06-16T02:53:56.014Z,102.67
2023-06-16T02:54:57.061Z,107.21
2023-06-16T02:55:57.124Z,103.19
2023-06-16T02:56:57.180Z,100.23
2023-06-16T02:57:57.249Z,104.13
2023-06-16T02:58:57.270Z,104.21
2023-06-16T02:59:57.302Z,104.11
2023-06-16T03:00:57.389Z,106.33
2023-06-16T03:01:57.412Z,103.83
2023-06-16T03:02:57.544Z,105.09
2023-06-16T03:03:57.527Z,105.49
2023-06-16T03:04:57.599Z,107.33
2023-06-16T03:05:57.645Z,106.88
2023-06-16T03:06:57.742Z,102.53
2023-06-16T03:07:56.776Z,102.15
2023-06-16T03:08:57.838Z,105.61
2023-06-16T03:09:57.867Z,105.56
2023-06-16T03:10:57.952Z,105.60
2023-06-16T03:11:57.041Z,105.80
2023-06-16T03:12:57.061Z,100.84
2023-06-16T03:13:58.136Z,102.07
2023-06-16T03:14:58.183Z,100.39
2023-06-16T03:15:57.208Z,100.20
2023-06-16T03:16:57.273Z,100.99
2023-06-16T03:17:59.966Z,99.84
2023-06-16T03:18:58.332Z,100.14
2023-06-16T03:19:58.305Z,100.05
2023-06-16T03:20:58.315Z,101.24
2023-06-16T03:21:57.296Z,102.30
2023-06-16T03:22:58.309Z,99.51
2023-06-16T03:23:58.295Z,100.76
2023-06-16T03:24:58.270Z,101.76
2023-06-16T03:25:58.258Z,99.02
2023-06-16T03:26:58.320Z,99.60
2023-06-16T03:27:58.274Z,100.88
2023-06-16T03:28:58.247Z,101.29
2023-06-16T03:29:58.237Z,98.74
2023-06-16T03:30:58.218Z,100.78
2023-06-16T03:31:58.220Z,103.25
2023-06-16T03:32:58.253Z,100.85
2023-06-16T03:34:01.955Z,100.30
2023-06-16T03:34:58.197Z,100.41
2023-06-16T03:35:57.184Z,100.42
2023-06-16T03:36:58.192Z,96.32
2023-06-16T03:37:58.191Z,100.56
2023-06-16T03:38:58.198Z,98.94
2023-06-16T03:39:58.155Z,100.46
2023-06-16T03:40:58.168Z,100.31
2023-06-16T03:41:58.162Z,96.22
2023-06-16T03:42:58.147Z,99.80
2023-06-16T03:43:58.160Z,102.56
2023-06-16T03:44:58.128Z,97.61
2023-06-16T03:45:58.209Z,96.44
2023-06-16T03:46:58.188Z,97.13
2023-06-16T03:47:58.347Z,96.35
2023-06-16T03:48:58.254Z,99.22
2023-06-16T03:49:57.305Z,99.02
2023-06-16T03:50:58.358Z,94.64
2023-06-16T03:51:57.418Z,96.91
2023-06-16T03:53:14.794Z,101.01
2023-06-16T03:53:58.451Z,101.18
2023-06-16T03:54:58.513Z,101.57
2023-06-16T03:55:57.450Z,102.14
2023-06-16T03:56:58.472Z,102.11
2023-06-16T03:57:58.438Z,99.62
2023-06-16T03:58:58.424Z,103.39
2023-06-16T03:59:58.412Z,93.66
2023-06-16T04:00:58.405Z,97.71
2023-06-16T04:01:58.391Z,99.55
2023-06-16T04:02:58.545Z,98.10
2023-06-16T04:03:57.430Z,92.99
2023-06-16T04:04:58.374Z,98.28
2023-06-16T04:05:58.389Z,96.64
2023-06-16T04:06:58.361Z,96.83
2023-06-16T04:07:58.409Z,95.65
2023-06-16T04:08:57.352Z,98.44
2023-06-16T04:09:58.357Z,95.20
2023-06-16T04:10:58.360Z,93.76
2023-06-16T04:11:58.348Z,93.74
2023-06-16T04:12:58.322Z,99.41
2023-06-16T04:13:57.358Z,94.42
2023-06-16T04:14:57.296Z,94.40
2023-06-16T04:15:57.293Z,95.84
2023-06-16T04:16:58.301Z,96.16
2023-06-16T04:17:58.314Z,93.63
2023-06-16T04:18:58.300Z,93.94
2023-06-16T04:19:58.310Z,93.65
2023-06-16T04:20:58.301Z,97.23
2023-06-16T04:21:58.923Z,92.54
2023-06-16T04:22:58.256Z,94.13
2023-06-16T04:23:57.261Z,90.12
2023-06-16T04:24:58.216Z,91.27
2023-06-16T04:25:58.243Z,94.07
2023-06-16T04:26:58.235Z,92.14
2023-06-16T04:27:58.271Z,93.32
2023-06-16T04:28:58.195Z,90.99
2023-06-16T04:29:58.182Z,93.97
2023-06-16T04:30:58.180Z,91.92
2023-06-16T04:31:58.204Z,94.77
2023-06-16T04:32:58.207Z,92.57
2023-06-16T04:33:58.154Z,93.19
2023-06-16T04:34:58.138Z,92.42
2023-06-16T04:35:58.148Z,92.07
2023-06-16T04:36:58.194Z,92.25
2023-06-16T04:37:58.264Z,90.69
2023-06-16T04:38:58.279Z,95.11
2023-06-16T04:39:58.307Z,91.51
2023-06-16T04:40:58.366Z,94.92
2023-06-16T04:41:57.418Z,93.16
2023-06-16T04:42:58.503Z,93.12
2023-06-16T04:43:58.486Z,93.39
2023-06-16T04:44:57.534Z,93.70
2023-06-16T04:45:58.644Z,92.84
2023-06-16T04:46:58.603Z,95.14
2023-06-16T04:47:58.651Z,91.99
2023-06-16T04:48:57.644Z,93.17
2023-06-16T04:49:58.669Z,92.61
2023-06-16T04:50:57.688Z,92.01
2023-06-16T04:51:58.678Z,91.02
2023-06-16T04:52:58.677Z,90.12
2023-06-16T04:53:58.725Z,89.90
2023-06-16T04:54:57.751Z,91.64
2023-06-16T04:55:57.775Z,94.03
2023-06-16T04:56:57.806Z,95.01
2023-06-16T04:57:58.876Z,88.45
2023-06-16T04:58:58.884Z,90.22
2023-06-16T04:59:57.886Z,91.72
2023-06-16T05:00:58.930Z,91.45
2023-06-16T05:01:58.906Z,88.56
2023-06-16T05:02:58.983Z,88.28
2023-06-16T05:03:59.059Z,89.62
2023-06-16T05:04:57.937Z,90.71
2023-06-16T05:05:58.922Z,90.34
2023-06-16T05:06:58.936Z,91.67
2023-06-16T05:07:59.029Z,91.69
2023-06-16T05:08:58.001Z,91.32
2023-06-16T05:09:58.970Z,90.16
2023-06-16T05:10:59.145Z,92.77
2023-06-16T05:11:59.280Z,90.07
2023-06-16T05:12:58.979Z,91.30
2023-06-16T05:13:59.029Z,88.11
2023-06-16T05:14:58.951Z,91.11
2023-06-16T05:15:58.947Z,88.29
2023-06-16T05:16:57.975Z,90.87
2023-06-16T05:17:59.017Z,89.45
2023-06-16T05:18:59.217Z,87.97
2023-06-16T05:19:58.999Z,87.93
2023-06-16T05:20:58.025Z,92.43
2023-06-16T05:21:59.068Z,90.87
2023-06-16T05:22:59.069Z,90.44
2023-06-16T05:23:59.177Z,92.16
2023-06-16T05:24:59.219Z,91.38
2023-06-16T05:25:59.137Z,92.50
2023-06-16T05:26:59.150Z,90.38
2023-06-16T05:27:59.204Z,90.43
2023-06-16T05:28:59.219Z,88.00
2023-06-16T05:30:01.073Z,89.66
2023-06-16T05:30:59.332Z,90.91
2023-06-16T05:31:59.245Z,91.82
2023-06-16T05:32:59.311Z,91.79
2023-06-16T05:33:59.222Z,89.43
2023-06-16T05:34:59.236Z,88.08
2023-06-16T05:35:59.523Z,90.43
2023-06-16T05:36:59.212Z,92.02
2023-06-16T05:38:05.912Z,92.34
2023-06-16T05:38:59.181Z,92.82
2023-06-16T05:39:58.193Z,92.94
2023-06-16T05:40:59.163Z,94.25
2023-06-16T05:41:59.160Z,94.39
2023-06-16T05:42:59.158Z,93.41
2023-06-16T05:43:59.188Z,91.68
2023-06-16T05:44:59.169Z,92.80
2023-06-16T05:45:59.130Z,88.61
2023-06-16T05:46:58.144Z,91.03
2023-06-16T05:47:59.164Z,94.18
2023-06-16T05:48:59.160Z,90.75
2023-06-16T05:49:59.093Z,88.33
2023-06-16T05:50:59.096Z,90.49
2023-06-16T05:51:59.118Z,91.72
2023-06-16T05:52:58.085Z,90.35
2023-06-16T05:53:59.126Z,88.88
2023-06-16T05:54:59.157Z,89.50
2023-06-16T05:55:59.535Z,86.11
2023-06-16T05:56:58.280Z,90.05
2023-06-16T05:57:59.348Z,83.96
2023-06-16T05:58:59.418Z,86.72
2023-06-16T05:59:58.468Z,89.51
2023-06-16T06:00:59.504Z,87.83
2023-06-16T06:01:59.604Z,89.14
2023-06-16T06:02:59.705Z,85.44
2023-06-16T06:04:00.152Z,88.11
2023-06-16T06:04:59.786Z,89.54
2023-06-16T06:05:59.858Z,87.18
2023-06-16T06:06:58.872Z,87.56
2023-06-16T06:07:59.928Z,87.55
2023-06-16T06:08:59.997Z,88.13
2023-06-16T06:10:00.042Z,88.35
2023-06-16T06:11:00.132Z,85.51
2023-06-16T06:12:00.182Z,85.89
2023-06-16T06:13:00.206Z,86.57
2023-06-16T06:13:59.273Z,85.39
2023-06-16T06:15:00.304Z,84.76
2023-06-16T06:16:00.390Z,82.20
2023-06-16T06:17:00.424Z,79.17
2023-06-16T06:18:00.533Z,79.70
2023-06-16T06:19:00.511Z,81.19
2023-06-16T06:20:00.549Z,83.23
2023-06-16T06:20:59.596Z,82.30
2023-06-16T06:21:59.669Z,82.64
2023-06-16T06:23:00.687Z,84.92
2023-06-16T06:23:59.778Z,84.04
2023-06-16T06:25:00.792Z,83.21
2023-06-16T06:25:59.881Z,86.99
2023-06-16T06:27:00.905Z,84.50
2023-06-16T06:28:00.964Z,87.13
2023-06-16T06:29:01.030Z,87.85
2023-06-16T06:30:01.041Z,87.17
2023-06-16T06:31:01.112Z,84.28
2023-06-16T06:32:01.151Z,84.82
2023-06-16T06:33:01.300Z,81.58
2023-06-16T06:34:01.295Z,88.09
2023-06-16T06:35:01.956Z,88.26
2023-06-16T06:36:01.474Z,85.65
2023-06-16T06:37:01.456Z,88.53
2023-06-16T06:38:01.503Z,83.18
2023-06-16T06:39:01.571Z,85.62
2023-06-16T06:40:01.658Z,87.99
2023-06-16T06:41:01.694Z,85.79
2023-06-16T06:42:01.723Z,87.10
2023-06-16T06:43:01.764Z,87.33
2023-06-16T06:44:01.839Z,84.55
2023-06-16T06:45:00.865Z,87.79
2023-06-16T06:46:02.019Z,83.44
2023-06-16T06:47:01.981Z,84.96
2023-06-16T06:48:02.066Z,86.19
2023-06-16T06:49:02.123Z,85.77
2023-06-16T06:50:01.190Z,82.60
2023-06-16T06:51:02.221Z,82.81
2023-06-16T06:52:02.247Z,86.45
2023-06-16T06:53:02.325Z,86.21
2023-06-16T06:54:02.436Z,86.20
2023-06-16T06:55:01.485Z,87.44
2023-06-16T06:56:02.439Z,86.82
2023-06-16T06:57:02.470Z,83.15
2023-06-16T06:58:02.541Z,87.08
2023-06-16T06:59:01.940Z,83.52
2023-06-16T07:00:02.614Z,86.68
2023-06-16T07:01:02.671Z,87.38
2023-06-16T07:02:01.767Z,86.62
2023-06-16T07:03:02.951Z,86.99
2023-06-16T07:04:01.983Z,85.93
2023-06-16T07:05:01.883Z,84.98
2023-06-16T07:06:03.021Z,86.87
2023-06-16T07:07:03.046Z,84.87
2023-06-16T07:08:02.054Z,84.60
2023-06-16T07:09:03.156Z,83.82
2023-06-16T07:10:03.151Z,85.69
2023-06-16T07:11:03.234Z,87.01
2023-06-16T07:12:03.274Z,81.50
2023-06-16T07:13:03.333Z,80.57
2023-06-16T07:14:03.379Z,84.03
2023-06-16T07:15:03.432Z,81.80
2023-06-16T07:16:03.500Z,83.82
2023-06-16T07:17:03.558Z,81.34
2023-06-16T07:18:03.719Z,84.50
2023-06-16T07:19:03.703Z,83.36
2023-06-16T07:20:03.737Z,80.19
2023-06-16T07:21:02.788Z,82.20
2023-06-16T07:22:03.874Z,82.85
2023-06-16T07:23:03.879Z,80.20
2023-06-16T07:24:04.017Z,81.69
2023-06-16T07:25:03.989Z,81.47
2023-06-16T07:26:04.048Z,83.69
2023-06-16T07:27:03.073Z,79.98
2023-06-16T07:28:04.129Z,77.71
2023-06-16T07:29:06.400Z,80.91
2023-06-16T07:30:04.169Z,80.99
2023-06-16T07:31:04.148Z,79.06
2023-06-16T07:32:04.153Z,80.99
2023-06-16T07:33:04.209Z,80.66
2023-06-16T07:34:03.147Z,76.75
2023-06-16T07:35:03.132Z,81.91
2023-06-16T07:36:04.113Z,79.97
2023-06-16T07:37:04.125Z,78.37
2023-06-16T07:38:04.146Z,77.72
2023-06-16T07:39:03.111Z,78.00
2023-06-16T07:40:05.817Z,74.85
2023-06-16T07:41:04.078Z,76.14
2023-06-16T07:42:04.080Z,81.16
2023-06-16T07:43:04.081Z,76.83
2023-06-16T07:44:04.081Z,76.43
2023-06-16T07:45:03.088Z,75.79
2023-06-16T07:46:03.083Z,72.84
2023-06-16T07:47:04.032Z,70.60
2023-06-16T07:48:04.086Z,72.28
2023-06-16T07:49:04.478Z,72.79
2023-06-16T07:50:04.045Z,70.04
2023-06-16T07:51:04.012Z,69.97
2023-06-16T07:52:03.018Z,73.09
2023-06-16T07:53:03.005Z,73.31
2023-06-16T07:54:04.500Z,69.49
2023-06-16T07:55:03.977Z,68.85
2023-06-16T07:56:03.979Z,74.68
2023-06-16T07:57:03.969Z,72.35
2023-06-16T07:58:04.004Z,72.44
2023-06-16T07:59:02.960Z,72.26
2023-06-16T08:00:03.945Z,75.01
2023-06-16T08:01:04.003Z,70.49
2023-06-16T08:02:03.925Z,75.54
2023-06-16T08:03:04.019Z,77.54
2023-06-16T08:04:03.318Z,74.49
2023-06-16T08:05:04.065Z,75.37
2023-06-16T08:06:02.945Z,77.75
2023-06-16T08:07:03.005Z,73.70
2023-06-16T08:08:04.050Z,79.37
2023-06-16T08:09:04.189Z,77.68
2023-06-16T08:10:04.186Z,76.16
2023-06-16T08:11:04.211Z,78.40
2023-06-16T08:12:03.257Z,79.60
2023-06-16T08:13:04.313Z,76.21
2023-06-16T08:14:03.376Z,78.30
2023-06-16T08:15:04.416Z,79.17
2023-06-16T08:16:04.504Z,76.03
2023-06-16T08:17:04.528Z,77.02
2023-06-16T08:18:03.614Z,79.18
2023-06-16T08:19:04.636Z,75.63
2023-06-16T08:20:04.668Z,77.52
2023-06-16T08:21:04.626Z,80.51
2023-06-16T08:22:04.772Z,79.75
2023-06-16T08:23:04.821Z,75.70
2023-06-16T08:24:03.901Z,82.75
2023-06-16T08:25:04.932Z,76.01
2023-06-16T08:26:05.029Z,79.47
2023-06-16T08:27:04.024Z,78.64
2023-06-16T08:28:05.088Z,75.16
2023-06-16T08:29:05.127Z,81.91
2023-06-16T08:30:04.204Z,78.32
2023-06-16T08:31:04.231Z,76.34
2023-06-16T08:32:05.293Z,77.69
2023-06-16T08:33:04.390Z,80.94
2023-06-16T08:34:05.390Z,75.65
2023-06-16T08:35:05.476Z,79.67
2023-06-16T08:36:05.502Z,82.25
2023-06-16T08:37:14.100Z,79.75
2023-06-16T08:38:05.562Z,80.00
2023-06-16T08:39:04.540Z,80.89
2023-06-16T08:40:05.545Z,82.35
2023-06-16T08:41:04.537Z,83.74
2023-06-16T08:42:05.564Z,81.85
2023-06-16T08:43:05.517Z,84.83
2023-06-16T08:44:05.510Z,84.37
2023-06-16T08:45:05.505Z,82.10
2023-06-16T08:46:05.551Z,83.55
2023-06-16T08:47:05.473Z,86.73
2023-06-16T08:48:04.530Z,85.38
2023-06-16T08:49:05.474Z,83.44
2023-06-16T08:50:04.463Z,88.98
2023-06-16T08:51:05.454Z,89.29
2023-06-16T08:52:05.466Z,88.91
2023-06-16T08:53:04.467Z,91.31
2023-06-16T08:54:05.430Z,88.06
2023-06-16T08:55:04.436Z,89.82
2023-06-16T08:56:05.408Z,92.88
2023-06-16T08:57:05.410Z,87.92
2023-06-16T08:58:05.447Z,96.39
2023-06-16T08:59:05.389Z,94.80
2023-06-16T09:00:04.378Z,96.03
2023-06-16T09:01:04.385Z,95.69
2023-06-16T09:02:05.370Z,91.44
2023-06-16T09:03:05.408Z,91.32
2023-06-16T09:04:05.456Z,95.45
2023-06-16T09:05:05.466Z,96.72
2023-06-16T09:06:05.506Z,96.72
2023-06-16T09:07:04.550Z,97.00
2023-06-16T09:08:05.971Z,97.61
2023-06-16T09:09:05.663Z,94.53
2023-06-16T09:10:05.705Z,98.21
2023-06-16T09:11:05.738Z,98.56
2023-06-16T09:12:04.842Z,96.90
2023-06-16T09:13:05.830Z,94.92
2023-06-16T09:14:04.939Z,101.96
2023-06-16T09:15:05.941Z,97.79
2023-06-16T09:16:06.011Z,100.00
2023-06-16T09:17:05.037Z,97.36
2023-06-16T09:18:05.084Z,98.38
2023-06-16T09:19:06.090Z,99.22
2023-06-16T09:20:06.143Z,96.84
2023-06-16T09:21:06.189Z,100.79
2023-06-16T09:22:06.220Z,95.12
2023-06-16T09:23:06.262Z,100.75
2023-06-16T09:24:06.386Z,99.33
2023-06-16T09:25:06.392Z,99.74
2023-06-16T09:26:06.477Z,101.25
2023-06-16T09:27:06.428Z,97.86
2023-06-16T09:28:06.525Z,101.70
2023-06-16T09:29:06.530Z,103.44
2023-06-16T09:30:06.611Z,102.77
2023-06-16T09:31:11.707Z,105.13
2023-06-16T09:32:06.609Z,105.35
2023-06-16T09:33:05.635Z,105.77
2023-06-16T09:34:06.588Z,104.15
2023-06-16T09:35:06.600Z,99.86
2023-06-16T09:36:06.576Z,102.81
2023-06-16T09:37:06.594Z,99.96
2023-06-16T09:38:06.616Z,102.12
2023-06-16T09:39:05.569Z,98.68
2023-06-16T09:40:05.567Z,101.79
2023-06-16T09:41:05.579Z,100.91
2023-06-16T09:42:06.553Z,103.58
2023-06-16T09:43:06.529Z,108.31
2023-06-16T09:44:06.536Z,102.94
2023-06-16T09:45:06.023Z,104.58
2023-06-16T09:46:06.595Z,105.68
2023-06-16T09:47:06.523Z,102.27
2023-06-16T09:48:06.723Z,105.44
2023-06-16T09:49:05.556Z,102.89
2023-06-16T09:50:06.505Z,100.83
2023-06-16T09:51:06.482Z,95.90
2023-06-16T09:52:06.497Z,87.41
2023-06-16T09:53:05.474Z,80.04
2023-06-16T09:54:06.465Z,84.46
2023-06-16T09:55:05.482Z,80.45
2023-06-16T09:56:05.464Z,76.61
2023-06-16T09:57:06.439Z,69.64
2023-06-16T09:58:06.452Z,74.26
2023-06-16T09:59:05.465Z,77.47
2023-06-16T10:00:06.445Z,79.54
2023-06-16T10:01:06.418Z,77.38
2023-06-16T10:02:06.451Z,76.56
2023-06-16T10:03:05.476Z,74.69
2023-06-16T10:04:06.434Z,68.49
2023-06-16T10:05:06.408Z,69.14
2023-06-16T10:06:06.385Z,65.94
2023-06-16T10:07:06.381Z,70.34
2023-06-16T10:08:05.419Z,71.89
2023-06-16T10:09:06.431Z,72.74
2023-06-16T10:10:05.504Z,68.50
2023-06-16T10:11:06.524Z,66.69
2023-06-16T10:12:05.554Z,68.47
2023-06-16T10:13:05.547Z,77.97
2023-06-16T10:14:05.589Z,85.13
2023-06-16T10:15:06.620Z,85.76
2023-06-16T10:16:06.639Z,93.37
2023-06-16T10:17:06.707Z,95.65
2023-06-16T10:18:09.623Z,102.86
2023-06-16T10:19:06.789Z,103.17
2023-06-16T10:20:06.670Z,103.80
2023-06-16T10:21:06.664Z,103.91
2023-06-16T10:22:07.823Z,104.85
2023-06-16T10:23:05.660Z,109.02
2023-06-16T10:24:06.675Z,105.97
2023-06-16T10:25:05.626Z,105.12
2023-06-16T10:26:06.633Z,105.20
2023-06-16T10:27:05.612Z,103.40
2023-06-16T10:28:06.687Z,101.25
2023-06-16T10:29:06.608Z,103.51
2023-06-16T10:30:06.586Z,108.83
2023-06-16T10:31:06.600Z,103.27
2023-06-16T10:32:06.584Z,102.84
2023-06-16T10:33:06.608Z,97.76
2023-06-16T10:34:06.607Z,100.09
2023-06-16T10:35:06.581Z,103.56
2023-06-16T10:37:05.545Z,99.97
2023-06-16T10:38:05.558Z,98.27
2023-06-16T10:39:06.529Z,99.94
2023-06-16T10:40:06.530Z,99.89
2023-06-16T10:41:06.548Z,102.48
2023-06-16T10:42:06.529Z,100.05
2023-06-16T10:43:06.512Z,98.58
2023-06-16T10:44:06.503Z,99.04
2023-06-16T10:45:05.529Z,97.60
2023-06-16T10:46:06.530Z,98.87
2023-06-16T10:47:06.720Z,94.16
2023-06-16T10:48:05.724Z,93.55
2023-06-16T10:49:06.495Z,94.19
2023-06-16T10:50:06.486Z,92.95
2023-06-16T10:51:06.560Z,92.55
2023-06-16T10:52:06.455Z,91.90
2023-06-16T10:53:06.428Z,91.37
2023-06-16T10:54:06.437Z,83.73
2023-06-16T10:55:06.413Z,76.19
2023-06-16T10:56:06.425Z,73.02
2023-06-16T10:57:11.197Z,67.01
2023-06-16T10:58:06.392Z,67.04
2023-06-16T10:59:06.395Z,62.89
2023-06-16T11:00:05.389Z,60.09
2023-06-16T11:01:06.636Z,55.90
2023-06-16T11:02:06.364Z,58.36
2023-06-16T11:03:06.402Z,54.86
2023-06-16T11:04:06.565Z,53.27
2023-06-16T11:05:06.348Z,55.99
2023-06-16T11:06:06.375Z,53.76
2023-06-16T11:07:14.092Z,58.27
2023-06-16T11:08:06.327Z,58.75
2023-06-16T11:09:05.312Z,61.51
2023-06-16T11:10:06.298Z,65.79
2023-06-16T11:11:06.543Z,72.75
2023-06-16T11:12:06.294Z,88.10
2023-06-16T11:13:06.304Z,90.62
2023-06-16T11:14:06.278Z,92.42
2023-06-16T11:15:06.298Z,91.78
2023-06-16T11:16:05.311Z,95.43
2023-06-16T11:17:06.245Z,95.29
2023-06-16T11:18:07.083Z,95.79
2023-06-16T11:19:06.235Z,92.99
2023-06-16T11:20:05.245Z,95.00
2023-06-16T11:21:06.251Z,91.39
2023-06-16T11:22:06.232Z,90.67
2023-06-16T11:23:06.214Z,89.88
2023-06-16T11:24:05.235Z,90.58
2023-06-16T11:25:06.201Z,92.30
2023-06-16T11:26:06.230Z,89.30
2023-06-16T11:27:05.183Z,89.69
2023-06-16T11:28:06.191Z,91.80
2023-06-16T11:29:06.187Z,88.90
2023-06-16T11:30:06.151Z,91.37
2023-06-16T11:31:06.179Z,92.13
2023-06-16T11:32:06.165Z,90.59
2023-06-16T11:33:05.171Z,92.32
2023-06-16T11:34:06.142Z,94.57
2023-06-16T11:35:06.146Z,93.59
2023-06-16T11:36:06.146Z,96.70
2023-06-16T11:37:06.120Z,95.67
2023-06-16T11:38:06.164Z,100.61
2023-06-16T11:39:06.112Z,101.04
2023-06-16T11:40:05.097Z,100.25
2023-06-16T11:41:11.718Z,99.37
2023-06-16T11:42:06.084Z,99.66
2023-06-16T11:43:06.088Z,99.74
2023-06-16T11:44:05.069Z,100.15
2023-06-16T11:45:06.101Z,100.84
2023-06-16T11:46:05.079Z,101.33
2023-06-16T11:47:06.133Z,102.90
2023-06-16T11:48:05.093Z,102.87
2023-06-16T11:49:05.024Z,103.57
2023-06-16T11:50:05.042Z,102.68
2023-06-16T11:51:06.041Z,100.27
2023-06-16T11:52:06.005Z,98.63
2023-06-16T11:53:06.002Z,100.78
2023-06-16T11:54:06.045Z,98.43
2023-06-16T11:55:05.992Z,96.33
2023-06-16T11:56:05.977Z,98.66
2023-06-16T11:57:05.973Z,97.37
2023-06-16T11:58:05.990Z,98.43
2023-06-16T11:59:05.958Z,95.26
2023-06-16T12:00:05.965Z,98.31
2023-06-16T12:01:05.984Z,98.24
2023-06-16T12:02:05.951Z,98.32
2023-06-16T12:03:05.016Z,98.10
2023-06-16T12:04:07.141Z,98.17
2023-06-16T12:05:05.967Z,97.52
2023-06-16T12:06:05.967Z,96.86
2023-06-16T12:07:06.068Z,98.13
2023-06-16T12:08:05.979Z,99.32
2023-06-16T12:09:06.004Z,98.53
2023-06-16T12:10:06.040Z,96.39
2023-06-16T12:11:06.013Z,95.54
2023-06-16T12:12:06.016Z,95.87
2023-06-16T12:13:06.020Z,95.08
2023-06-16T12:14:06.049Z,96.24
2023-06-16T12:15:06.052Z,101.04
2023-06-16T12:16:06.071Z,96.04
2023-06-16T12:17:06.077Z,97.66
2023-06-16T12:18:06.128Z,98.71
2023-06-16T12:19:06.116Z,93.46
2023-06-16T12:20:06.124Z,94.59
2023-06-16T12:21:05.150Z,86.63
2023-06-16T12:22:06.161Z,91.19
2023-06-16T12:23:06.186Z,90.92
2023-06-16T12:24:06.214Z,88.70
2023-06-16T12:25:06.194Z,82.07
2023-06-16T12:26:06.220Z,82.52
2023-06-16T12:27:06.208Z,80.53
2023-06-16T12:28:05.209Z,78.76
2023-06-16T12:29:05.237Z,77.13
2023-06-16T12:30:06.274Z,83.90
2023-06-16T12:31:05.276Z,85.75
2023-06-16T12:32:06.294Z,86.99
2023-06-16T12:33:06.293Z,85.73
2023-06-16T12:34:06.292Z,95.09
2023-06-16T12:35:06.336Z,96.61
2023-06-16T12:36:06.310Z,96.34
2023-06-16T12:37:06.328Z,95.82
2023-06-16T12:38:06.359Z,95.13
2023-06-16T12:39:06.350Z,93.63
2023-06-16T12:40:06.374Z,93.25
2023-06-16T12:41:06.381Z,90.95
2023-06-16T12:42:06.423Z,93.68
2023-06-16T12:43:06.392Z,91.70
2023-06-16T12:44:06.405Z,92.42
2023-06-16T12:45:06.439Z,96.39